createdAt,value
2023-05-01T00:02:04.102Z,101203.63
2023-05-01T00:04:33.325Z,101201.09
2023-05-01T00:07:00.023Z,101199.91
2023-05-01T00:09:30.120Z,101186.47
2023-05-01T00:11:56.840Z,101185.28
2023-05-01T00:14:23.533Z,101190.50
2023-05-01T00:16:50.511Z,101179.34
2023-05-01T00:19:18.690Z,101184.66
2023-05-01T00:21:46.908Z,101182.97
2023-05-01T00:24:14.465Z,101166.34
2023-05-01T00:26:41.330Z,101170.59
2023-05-01T00:29:08.785Z,101174.53
2023-05-01T00:31:36.187Z,101172.78
2023-05-01T00:34:02.824Z,101161.03
2023-05-01T00:36:29.520Z,101164.16
2023-05-01T00:38:56.242Z,101153.69
2023-05-01T00:41:23.006Z,101151.78
2023-05-01T00:43:49.741Z,101145.72
2023-05-01T00:46:16.829Z,101147.50
2023-05-01T00:48:43.733Z,101148.28
2023-05-01T00:51:11.440Z,101138.50
2023-05-01T00:53:41.814Z,101144.66
2023-05-01T00:56:09.700Z,101134.88
2023-05-01T00:58:37.302Z,101129.69
2023-05-01T01:01:05.350Z,101132.44
2023-05-01T01:03:32.159Z,101129.09
2023-05-01T01:06:08.553Z,101127.59
2023-05-01T01:09:28.940Z,101127.66
2023-05-01T01:12:00.006Z,101123.06
2023-05-01T01:14:50.550Z,101127.16
2023-05-01T01:17:30.249Z,101107.94
2023-05-01T01:20:17.262Z,101108.81
2023-05-01T01:22:49.734Z,101104.50
2023-05-01T01:25:39.030Z,101103.13
2023-05-01T01:28:29.928Z,101112.41
2023-05-01T01:30:59.978Z,101099.44
2023-05-01T01:34:02.434Z,101093.38
2023-05-01T01:37:00.107Z,101096.88
2023-05-01T01:39:46.148Z,101094.66
2023-05-01T01:42:19.738Z,101089.09
2023-05-01T01:44:56.086Z,101087.41
2023-05-01T01:47:28.388Z,101076.97
2023-05-01T01:49:56.619Z,101087.31
2023-05-01T01:52:24.984Z,101077.78
2023-05-01T01:54:58.608Z,101073.44
2023-05-01T01:57:27.307Z,101069.53
2023-05-01T01:59:55.789Z,101065.34
2023-05-01T02:02:23.892Z,101063.09
2023-05-01T02:04:52.164Z,101061.94
2023-05-01T02:07:20.649Z,101057.91
2023-05-01T02:09:50.349Z,101053.47
2023-05-01T02:12:18.790Z,101050.09
2023-05-01T02:14:47.884Z,101051.59
2023-05-01T02:17:16.028Z,101046.34
2023-05-01T02:19:44.935Z,101048.06
2023-05-01T02:22:12.297Z,101042.88
2023-05-01T02:24:40.370Z,101047.06
2023-05-01T02:27:21.687Z,101044.03
2023-05-01T02:29:49.574Z,101042.22
2023-05-01T02:32:16.189Z,101042.66
2023-05-01T02:34:43.333Z,101030.38
2023-05-01T02:37:11.826Z,101031.16
2023-05-01T02:39:40.890Z,101022.28
2023-05-01T02:42:09.999Z,101022.13
2023-05-01T02:44:49.068Z,101015.19
2023-05-01T02:47:20.093Z,101015.91
2023-05-01T02:49:48.594Z,101020.09
2023-05-01T02:52:17.747Z,100998.50
2023-05-01T02:54:46.830Z,101009.72
2023-05-01T02:57:14.051Z,101000.22
2023-05-01T02:59:41.094Z,100993.31
2023-05-01T03:02:07.745Z,100995.31
2023-05-01T03:04:34.568Z,100994.16
2023-05-01T03:07:01.533Z,100990.69
2023-05-01T03:09:28.094Z,100994.59
2023-05-01T03:11:54.663Z,100990.63
2023-05-01T03:14:21.317Z,100987.94
2023-05-01T03:16:47.997Z,100982.78
2023-05-01T03:19:14.824Z,100981.13
2023-05-01T03:21:41.872Z,100980.22
2023-05-01T03:24:08.529Z,100974.78
2023-05-01T03:26:35.133Z,100967.94
2023-05-01T03:29:01.759Z,100965.59
2023-05-01T03:31:29.228Z,100966.53
2023-05-01T03:33:58.489Z,100957.88
2023-05-01T03:36:25.276Z,100958.88
2023-05-01T03:38:53.168Z,100947.59
2023-05-01T03:41:39.731Z,100956.00
2023-05-01T03:44:26.839Z,100950.22
2023-05-01T03:46:53.485Z,100945.81
2023-05-01T03:49:24.471Z,100946.50
2023-05-01T03:51:51.443Z,100940.38
2023-05-01T03:54:18.317Z,100944.22
2023-05-01T03:57:07.680Z,100945.03
2023-05-01T03:59:35.427Z,100945.03
2023-05-01T04:02:02.425Z,100938.94
2023-05-01T04:04:32.320Z,100938.88
2023-05-01T04:06:59.117Z,100934.97
2023-05-01T04:09:26.085Z,100934.84
2023-05-01T04:11:52.663Z,100936.41
2023-05-01T04:14:19.364Z,100935.00
2023-05-01T04:16:46.135Z,100938.16
2023-05-01T04:19:13.635Z,100931.34
2023-05-01T04:21:42.929Z,100939.88
2023-05-01T04:24:09.535Z,100935.53
2023-05-01T04:26:36.392Z,100935.22
2023-05-01T04:29:03.087Z,100939.00
2023-05-01T04:31:29.678Z,100928.44
2023-05-01T04:33:57.130Z,100924.41
2023-05-01T04:36:23.710Z,100930.75
2023-05-01T04:38:50.421Z,100919.59
2023-05-01T04:41:17.703Z,100929.69
2023-05-01T04:43:45.747Z,100926.72
2023-05-01T04:46:16.186Z,100916.72
2023-05-01T04:48:42.822Z,100919.53
2023-05-01T04:51:09.398Z,100913.34
2023-05-01T04:53:36.620Z,100918.88
2023-05-01T04:56:05.752Z,100917.19
2023-05-01T04:58:32.968Z,100919.34
2023-05-01T05:01:05.438Z,100915.06
2023-05-01T05:03:32.240Z,100914.78
2023-05-01T05:05:59.016Z,100910.63
2023-05-01T05:08:26.044Z,100912.38
2023-05-01T05:11:02.648Z,100910.84
2023-05-01T05:13:33.860Z,100907.94
2023-05-01T05:16:03.973Z,100907.31
2023-05-01T05:18:31.660Z,100912.72
2023-05-01T05:20:58.629Z,100904.03
2023-05-01T05:23:25.743Z,100911.34
2023-05-01T05:25:52.338Z,100907.31
2023-05-01T05:28:19.408Z,100910.13
2023-05-01T05:30:47.272Z,100915.50
2023-05-01T05:33:16.983Z,100910.38
2023-05-01T05:35:43.628Z,100907.00
2023-05-01T05:38:10.407Z,100915.59
2023-05-01T05:40:39.719Z,100905.38
2023-05-01T05:43:06.355Z,100900.50
2023-05-01T05:45:34.556Z,100907.50
2023-05-01T05:48:01.749Z,100894.75
2023-05-01T05:50:30.915Z,100904.44
2023-05-01T05:52:58.210Z,100908.91
2023-05-01T05:55:25.447Z,100897.63
2023-05-01T05:58:03.248Z,100899.44
2023-05-01T06:00:30.388Z,100899.66
2023-05-01T06:03:00.611Z,100906.75
2023-05-01T06:05:29.844Z,100902.44
2023-05-01T06:07:56.539Z,100898.31
2023-05-01T06:10:23.086Z,100902.63
2023-05-01T06:12:53.911Z,100898.56
2023-05-01T06:15:25.280Z,100899.72
2023-05-01T06:17:54.069Z,100897.16
2023-05-01T06:20:20.790Z,100892.66
2023-05-01T06:22:49.936Z,100889.22
2023-05-01T06:25:23.091Z,100892.16
2023-05-01T06:27:50.608Z,100885.25
2023-05-01T06:30:21.157Z,100888.19
2023-05-01T06:32:54.994Z,100881.31
2023-05-01T06:35:21.996Z,100888.84
2023-05-01T06:37:49.896Z,100886.53
2023-05-01T06:40:16.541Z,100889.50
2023-05-01T06:42:43.246Z,100887.94
2023-05-01T06:45:09.889Z,100887.88
2023-05-01T06:47:36.578Z,100876.69
2023-05-01T06:50:05.816Z,100881.13
2023-05-01T06:52:33.680Z,100879.56
2023-05-01T06:55:00.301Z,100876.13
2023-05-01T06:57:27.375Z,100877.91
2023-05-01T06:59:54.392Z,100878.22
2023-05-01T07:02:21.296Z,100876.47
2023-05-01T07:04:48.021Z,100880.09
2023-05-01T07:07:14.829Z,100878.53
2023-05-01T07:09:41.601Z,100880.41
2023-05-01T07:12:08.765Z,100868.50
2023-05-01T07:14:35.853Z,100866.00
2023-05-01T07:17:03.292Z,100876.44
2023-05-01T07:19:29.922Z,100858.03
2023-05-01T07:21:56.638Z,100871.47
2023-05-01T07:24:23.396Z,100868.84
2023-05-01T07:26:50.030Z,100858.41
2023-05-01T07:29:16.768Z,100870.53
2023-05-01T07:31:44.017Z,100867.91
2023-05-01T07:34:13.338Z,100860.31
2023-05-01T07:36:43.833Z,100865.56
2023-05-01T07:39:11.841Z,100857.56
2023-05-01T07:41:39.270Z,100853.34
2023-05-01T07:44:07.932Z,100855.22
2023-05-01T07:46:38.110Z,100853.56
2023-05-01T07:49:14.652Z,100844.88
2023-05-01T07:51:48.516Z,100845.81
2023-05-01T07:54:22.028Z,100849.34
2023-05-01T07:56:54.215Z,100848.56
2023-05-01T07:59:24.674Z,100843.34
2023-05-01T08:01:54.242Z,100845.97
2023-05-01T08:04:23.562Z,100851.28
2023-05-01T08:06:54.317Z,100846.94
2023-05-01T08:09:34.393Z,100839.94
2023-05-01T08:12:03.844Z,100845.22
2023-05-01T08:14:30.901Z,100843.47
2023-05-01T08:16:58.042Z,100843.50
2023-05-01T08:19:25.269Z,100846.09
2023-05-01T08:21:54.712Z,100850.44
2023-05-01T08:24:24.126Z,100841.72
2023-05-01T08:26:52.664Z,100841.69
2023-05-01T08:29:19.310Z,100843.44
2023-05-01T08:31:45.938Z,100839.94
2023-05-01T08:34:12.544Z,100829.47
2023-05-01T08:36:39.271Z,100838.19
2023-05-01T08:39:05.884Z,100827.66
2023-05-01T08:41:32.845Z,100831.16
2023-05-01T08:44:01.557Z,100835.53
2023-05-01T08:46:38.440Z,100824.88
2023-05-01T08:49:06.166Z,100819.47
2023-05-01T08:51:34.226Z,100826.38
2023-05-01T08:54:03.537Z,100825.41
2023-05-01T08:56:31.318Z,100819.22
2023-05-01T08:59:01.177Z,100820.94
2023-05-01T09:01:29.142Z,100816.50
2023-05-01T09:03:58.151Z,100812.06
2023-05-01T09:06:28.237Z,100812.72
2023-05-01T09:08:55.159Z,100814.56
2023-05-01T09:11:23.164Z,100811.16
2023-05-01T09:13:50.969Z,100815.31
2023-05-01T09:16:18.003Z,100805.63
2023-05-01T09:18:45.252Z,100817.22
2023-05-01T09:21:12.404Z,100810.72
2023-05-01T09:23:40.738Z,100812.28
2023-05-01T09:26:08.230Z,100809.47
2023-05-01T09:28:45.510Z,100812.19
2023-05-01T09:31:25.638Z,100804.09
2023-05-01T09:33:54.495Z,100803.13
2023-05-01T09:36:22.823Z,100796.41
2023-05-01T09:38:49.471Z,100793.59
2023-05-01T09:41:16.318Z,100793.34
2023-05-01T09:43:49.958Z,100789.53
2023-05-01T09:46:17.361Z,100788.28
2023-05-01T09:48:57.451Z,100786.78
2023-05-01T09:51:27.179Z,100788.50
2023-05-01T09:53:58.229Z,100787.44
2023-05-01T09:56:29.677Z,100784.06
2023-05-01T09:58:59.879Z,100785.31
2023-05-01T10:01:44.054Z,100783.94
2023-05-01T10:04:10.983Z,100778.78
2023-05-01T10:06:39.451Z,100778.31
2023-05-01T10:09:10.823Z,100784.13
2023-05-01T10:12:00.114Z,100776.22
2023-05-01T10:14:28.199Z,100767.97
2023-05-01T10:16:56.736Z,100773.38
2023-05-01T10:19:23.549Z,100772.06
2023-05-01T10:21:50.177Z,100771.06
2023-05-01T10:24:17.424Z,100765.31
2023-05-01T10:26:44.855Z,100770.91
2023-05-01T10:29:12.614Z,100774.56
2023-05-01T10:31:41.524Z,100765.53
2023-05-01T10:34:10.048Z,100764.81
2023-05-01T10:36:43.473Z,100764.06
2023-05-01T10:39:36.128Z,100766.84
2023-05-01T10:42:16.668Z,100769.97
2023-05-01T10:44:44.125Z,100761.56
2023-05-01T10:47:30.715Z,100761.44
2023-05-01T10:50:15.870Z,100757.00
2023-05-01T10:53:14.599Z,100753.44
2023-05-01T10:55:45.995Z,100750.53
2023-05-01T10:58:14.266Z,100757.50
2023-05-01T11:00:41.649Z,100742.38
2023-05-01T11:03:23.534Z,100744.09
2023-05-01T11:06:05.542Z,100734.56
2023-05-01T11:08:38.480Z,100725.06
2023-05-01T11:11:21.277Z,100731.97
2023-05-01T11:14:01.066Z,100730.25
2023-05-01T11:16:47.165Z,100730.88
2023-05-01T11:19:23.195Z,100726.94
2023-05-01T11:21:54.319Z,100729.13
2023-05-01T11:24:21.064Z,100724.50
2023-05-01T11:26:48.674Z,100714.31
2023-05-01T11:29:15.486Z,100724.56
2023-05-01T11:31:42.252Z,100715.38
2023-05-01T11:34:09.224Z,100719.44
2023-05-01T11:36:49.694Z,100719.84
2023-05-01T11:39:19.754Z,100715.84
2023-05-01T11:41:47.210Z,100717.72
2023-05-01T11:44:18.518Z,100709.69
2023-05-01T11:46:45.279Z,100707.03
2023-05-01T11:49:12.178Z,100702.06
2023-05-01T11:51:39.112Z,100704.63
2023-05-01T11:54:07.706Z,100706.03
2023-05-01T11:56:36.657Z,100702.88
2023-05-01T11:59:16.899Z,100695.50
2023-05-01T12:01:45.617Z,100693.72
2023-05-01T12:04:13.869Z,100705.03
2023-05-01T12:06:45.894Z,100691.03
2023-05-01T12:09:17.902Z,100693.06
2023-05-01T12:11:46.215Z,100699.09
2023-05-01T12:14:15.228Z,100693.50
2023-05-01T12:16:42.719Z,100691.63
2023-05-01T12:19:12.117Z,100688.25
2023-05-01T12:21:38.830Z,100693.13
2023-05-01T12:24:10.743Z,100693.69
2023-05-01T12:26:37.860Z,100690.44
2023-05-01T12:29:06.480Z,100691.72
2023-05-01T12:31:33.719Z,100685.03
2023-05-01T12:34:03.539Z,100686.66
2023-05-01T12:36:32.486Z,100689.72
2023-05-01T12:41:56.352Z,100683.19
2023-05-01T12:44:29.952Z,100683.53
2023-05-01T12:47:01.045Z,100676.03
2023-05-01T12:49:29.681Z,100683.13
2023-05-01T12:51:58.130Z,100682.59
2023-05-01T12:54:30.639Z,100680.63
2023-05-01T12:57:08.313Z,100673.69
2023-05-01T12:59:37.432Z,100670.28
2023-05-01T13:02:06.119Z,100665.56
2023-05-01T13:04:34.456Z,100670.72
2023-05-01T13:07:01.848Z,100672.00
2023-05-01T13:09:32.827Z,100668.13
2023-05-01T13:12:07.854Z,100676.31
2023-05-01T13:14:39.444Z,100668.16
2023-05-01T13:17:10.698Z,100672.00
2023-05-01T13:19:37.926Z,100670.47
2023-05-01T13:22:07.631Z,100662.63
2023-05-01T13:24:42.297Z,100664.84
2023-05-01T13:27:09.459Z,100666.94
2023-05-01T13:29:36.706Z,100658.88
2023-05-01T13:32:10.038Z,100661.19
2023-05-01T13:34:37.647Z,100656.69
2023-05-01T13:37:04.332Z,100648.69
2023-05-01T13:39:30.982Z,100648.47
2023-05-01T13:41:57.506Z,100645.16
2023-05-01T13:44:24.106Z,100648.69
2023-05-01T13:46:50.710Z,100648.31
2023-05-01T13:49:22.230Z,100645.09
2023-05-01T13:51:48.852Z,100648.06
2023-05-01T13:54:16.793Z,100645.91
2023-05-01T13:56:43.467Z,100640.41
2023-05-01T13:59:10.682Z,100633.31
2023-05-01T14:01:46.348Z,100637.53
2023-05-01T14:04:18.222Z,100634.38
2023-05-01T14:06:53.241Z,100638.50
2023-05-01T14:09:22.575Z,100644.72
2023-05-01T14:11:50.846Z,100639.28
2023-05-01T14:14:18.422Z,100637.28
2023-05-01T14:16:49.132Z,100634.22
2023-05-01T14:19:18.065Z,100627.38
2023-05-01T14:21:45.022Z,100632.41
2023-05-01T14:24:11.703Z,100636.03
2023-05-01T14:26:42.048Z,100631.16
2023-05-01T14:29:22.624Z,100629.06
2023-05-01T14:31:49.465Z,100630.84
2023-05-01T14:34:20.729Z,100626.19
2023-05-01T14:36:47.339Z,100631.00
2023-05-01T14:39:23.691Z,100627.34
2023-05-01T14:41:50.977Z,100632.56
2023-05-01T14:44:20.484Z,100618.59
2023-05-01T14:46:52.113Z,100624.63
2023-05-01T14:49:21.172Z,100627.00
2023-05-01T14:51:48.789Z,100630.63
2023-05-01T14:54:16.161Z,100631.84
2023-05-01T14:56:43.845Z,100630.06
2023-05-01T14:59:10.898Z,100626.63
2023-05-01T15:01:37.532Z,100628.00
2023-05-01T15:04:06.407Z,100624.25
2023-05-01T15:06:36.532Z,100619.75
2023-05-01T15:09:04.617Z,100626.13
2023-05-01T15:11:31.601Z,100623.66
2023-05-01T15:13:58.195Z,100620.66
2023-05-01T15:16:24.818Z,100616.78
2023-05-01T15:18:51.480Z,100614.38
2023-05-01T15:21:18.390Z,100609.06
2023-05-01T15:23:46.187Z,100607.84
2023-05-01T15:26:12.831Z,100612.06
2023-05-01T15:28:39.457Z,100617.69
2023-05-01T15:31:07.008Z,100619.69
2023-05-01T15:33:33.801Z,100618.75
2023-05-01T15:36:00.519Z,100617.59
2023-05-01T15:38:28.304Z,100616.75
2023-05-01T15:40:55.044Z,100608.59
2023-05-01T15:43:23.268Z,100616.50
2023-05-01T15:45:51.399Z,100619.94
2023-05-01T15:48:18.105Z,100612.81
2023-05-01T15:50:46.647Z,100622.44
2023-05-01T15:53:16.970Z,100619.19
2023-05-01T15:55:43.660Z,100613.56
2023-05-01T15:58:10.451Z,100621.03
2023-05-01T16:00:39.576Z,100624.50
2023-05-01T16:03:07.870Z,100623.66
2023-05-01T16:05:37.085Z,100625.97
2023-05-01T16:08:05.597Z,100631.91
2023-05-01T16:10:37.130Z,100624.44
2023-05-01T16:13:07.248Z,100625.09
2023-05-01T16:15:34.085Z,100625.69
2023-05-01T16:18:03.989Z,100623.34
2023-05-01T16:20:38.818Z,100620.81
2023-05-01T16:23:05.510Z,100616.59
2023-05-01T16:25:32.308Z,100630.97
2023-05-01T16:27:59.055Z,100625.78
2023-05-01T16:30:27.772Z,100625.69
2023-05-01T16:32:54.719Z,100633.25
2023-05-01T16:35:27.212Z,100622.22
2023-05-01T16:37:54.899Z,100635.75
2023-05-01T16:40:22.111Z,100638.38
2023-05-01T16:42:51.773Z,100636.63
2023-05-01T16:45:18.768Z,100642.13
2023-05-01T16:47:45.445Z,100644.16
2023-05-01T16:50:12.507Z,100654.53
2023-05-01T16:52:41.968Z,100663.59
2023-05-01T16:55:09.197Z,100655.97
2023-05-01T16:57:36.007Z,100659.19
2023-05-01T17:00:03.137Z,100662.63
2023-05-01T17:02:30.011Z,100663.09
2023-05-01T17:04:57.035Z,100666.44
2023-05-01T17:07:23.960Z,100669.56
2023-05-01T17:09:50.918Z,100671.56
2023-05-01T17:12:17.555Z,100679.38
2023-05-01T17:14:44.234Z,100690.25
2023-05-01T17:17:10.801Z,100681.09
2023-05-01T17:19:41.261Z,100685.91
2023-05-01T17:22:07.909Z,100684.31
2023-05-01T17:24:35.744Z,100691.97
2023-05-01T17:27:03.569Z,100694.84
2023-05-01T17:29:30.233Z,100691.53
2023-05-01T17:31:56.895Z,100691.59
2023-05-01T17:34:23.657Z,100692.47
2023-05-01T17:36:50.355Z,100690.84
2023-05-01T17:39:16.980Z,100694.56
2023-05-01T17:41:55.317Z,100696.38
2023-05-01T17:44:33.954Z,100702.56
2023-05-01T17:47:36.348Z,100722.28
2023-05-01T17:50:28.066Z,100752.53
2023-05-01T17:53:18.017Z,100752.75
2023-05-01T17:55:50.894Z,100772.41
2023-05-01T17:58:38.234Z,100782.13
2023-05-01T18:01:05.905Z,100793.31
2023-05-01T18:03:32.934Z,100796.13
2023-05-01T18:06:01.734Z,100791.94
2023-05-01T18:08:28.422Z,100792.91
2023-05-01T18:10:55.098Z,100801.13
2023-05-01T18:13:27.746Z,100806.47
2023-05-01T18:15:57.578Z,100804.84
2023-05-01T18:18:24.282Z,100811.06
2023-05-01T18:20:50.908Z,100819.75
2023-05-01T18:23:18.743Z,100812.75
2023-05-01T18:25:46.226Z,100811.97
2023-05-01T18:28:13.015Z,100808.50
2023-05-01T18:30:39.685Z,100816.41
2023-05-01T18:33:06.277Z,100817.31
2023-05-01T18:35:33.614Z,100823.41
2023-05-01T18:38:00.295Z,100811.16
2023-05-01T18:40:27.296Z,100811.16
2023-05-01T18:43:01.599Z,100817.31
2023-05-01T18:45:48.003Z,100826.03
2023-05-01T18:48:16.087Z,100821.69
2023-05-01T18:50:45.767Z,100809.44
2023-05-01T18:53:16.058Z,100817.31
2023-05-01T18:55:42.753Z,100814.69
2023-05-01T18:58:09.352Z,100825.13
2023-05-01T19:00:35.910Z,100825.16
2023-05-01T19:03:02.592Z,100819.03
2023-05-01T19:05:29.325Z,100813.81
2023-05-01T19:08:00.579Z,100824.16
2023-05-01T19:10:27.804Z,100844.88
2023-05-01T19:12:54.346Z,100851.88
2023-05-01T19:15:20.944Z,100850.75
2023-05-01T19:17:47.604Z,100851.72
2023-05-01T19:20:15.872Z,100856.97
2023-05-01T19:22:42.592Z,100866.50
2023-05-01T19:25:09.723Z,100867.44
2023-05-01T19:27:36.527Z,100870.81
2023-05-01T19:30:03.990Z,100872.69
2023-05-01T19:32:30.657Z,100875.25
2023-05-01T19:34:57.305Z,100871.91
2023-05-01T19:37:24.117Z,100868.41
2023-05-01T19:39:50.911Z,100874.50
2023-05-01T19:42:17.576Z,100875.31
2023-05-01T19:44:44.144Z,100878.00
2023-05-01T19:47:10.816Z,100878.13
2023-05-01T19:49:38.746Z,100874.63
2023-05-01T19:52:06.301Z,100874.66
2023-05-01T19:54:33.020Z,100871.13
2023-05-01T19:56:59.716Z,100870.06
2023-05-01T19:59:26.806Z,100879.66
2023-05-01T20:01:55.076Z,100865.84
2023-05-01T20:04:24.182Z,100871.06
2023-05-01T20:06:51.754Z,100865.06
2023-05-01T20:09:18.725Z,100871.16
2023-05-01T20:11:45.314Z,100864.25
2023-05-01T20:14:11.991Z,100867.72
2023-05-01T20:16:38.693Z,100863.34
2023-05-01T20:19:06.439Z,100874.69
2023-05-01T20:21:33.129Z,100876.41
2023-05-01T20:23:59.763Z,100875.53
2023-05-01T20:26:26.638Z,100879.88
2023-05-01T20:28:53.647Z,100879.84
2023-05-01T20:31:20.290Z,100874.63
2023-05-01T20:33:46.993Z,100880.72
2023-05-01T20:36:14.673Z,100888.38
2023-05-01T20:38:43.369Z,100881.41
2023-05-01T20:41:10.144Z,100892.63
2023-05-01T20:43:36.932Z,100897.81
2023-05-01T20:46:03.572Z,100901.19
2023-05-01T20:48:30.312Z,100895.22
2023-05-01T20:50:56.867Z,100904.81
2023-05-01T20:53:23.612Z,100899.53
2023-05-01T20:55:50.267Z,100888.22
2023-05-01T20:58:16.875Z,100897.75
2023-05-01T21:00:43.479Z,100896.78
2023-05-01T21:03:10.428Z,100900.03
2023-05-01T21:05:37.079Z,100897.47
2023-05-01T21:08:03.704Z,100892.34
2023-05-01T21:10:30.270Z,100890.72
2023-05-01T21:12:57.798Z,100900.31
2023-05-01T21:15:24.671Z,100899.38
2023-05-01T21:17:51.306Z,100910.72
2023-05-01T21:20:30.265Z,100915.94
2023-05-01T21:22:56.879Z,100917.75
2023-05-01T21:25:26.961Z,100921.16
2023-05-01T21:27:54.171Z,100925.56
2023-05-01T21:30:29.772Z,100927.41
2023-05-01T21:32:57.457Z,100923.09
2023-05-01T21:35:25.820Z,100921.34
2023-05-01T21:37:52.476Z,100932.69
2023-05-01T21:40:19.306Z,100931.72
2023-05-01T21:42:46.541Z,100929.00
2023-05-01T21:45:14.979Z,100946.50
2023-05-01T21:47:43.994Z,100943.09
2023-05-01T21:50:15.552Z,100949.13
2023-05-01T21:52:43.983Z,100944.66
2023-05-01T21:55:17.075Z,100953.25
2023-05-01T21:57:43.755Z,100950.75
2023-05-01T22:00:11.058Z,100950.84
2023-05-01T22:02:43.149Z,100951.75
2023-05-01T22:05:11.647Z,100949.19
2023-05-01T22:07:40.074Z,100957.81
2023-05-01T22:10:14.385Z,100962.94
2023-05-01T22:12:41.076Z,100971.56
2023-05-01T22:15:12.157Z,100970.56
2023-05-01T22:17:39.836Z,100969.88
2023-05-01T22:20:07.431Z,100977.47
2023-05-01T22:22:34.625Z,100976.78
2023-05-01T22:25:01.623Z,100981.31
2023-05-01T22:27:28.599Z,100978.69
2023-05-01T22:29:55.285Z,100981.28
2023-05-01T22:32:21.988Z,100985.69
2023-05-01T22:34:48.642Z,100979.69
2023-05-01T22:37:15.758Z,100989.16
2023-05-01T22:39:42.933Z,100983.97
2023-05-01T22:42:09.744Z,100988.28
2023-05-01T22:44:36.605Z,100997.94
2023-05-01T22:47:03.454Z,100989.16
2023-05-01T22:49:31.988Z,100990.88
2023-05-01T22:51:58.691Z,100993.50
2023-05-01T22:54:25.415Z,100996.09
2023-05-01T22:56:52.386Z,100989.00
2023-05-01T22:59:19.794Z,100996.00
2023-05-01T23:01:46.489Z,101007.91
2023-05-01T23:04:13.958Z,101008.16
2023-05-01T23:06:41.070Z,101005.59
2023-05-01T23:09:08.438Z,101010.78
2023-05-01T23:11:35.223Z,101005.44
2023-05-01T23:14:02.016Z,101006.34
2023-05-01T23:16:36.501Z,101009.97
2023-05-01T23:19:03.638Z,101018.72
2023-05-01T23:21:30.933Z,101017.88
2023-05-01T23:23:57.512Z,101029.13
2023-05-01T23:26:25.971Z,101026.03
2023-05-01T23:28:53.224Z,101028.84
2023-05-01T23:31:29.235Z,101023.50
2023-05-01T23:33:55.972Z,101021.78
2023-05-01T23:36:22.735Z,101027.06
2023-05-01T23:38:49.573Z,101026.16
2023-05-01T23:41:16.393Z,101030.47
2023-05-01T23:43:46.414Z,101028.63
2023-05-01T23:46:13.120Z,101035.25
2023-05-01T23:48:40.856Z,101039.00
2023-05-01T23:51:07.526Z,101036.97
2023-05-01T23:53:34.100Z,101040.78
2023-05-01T23:56:00.797Z,101040.91
2023-05-01T23:58:27.339Z,101044.41
